^^
Saratoga-Weather Station Historical Data
Daily Summary for March 18, 2020 Units:  Both    English   Metric
Daily Weekly Monthly Yearly Custom
  High: Low: Average:
Temperature: 81.3 °F /  27.4 °C 53.4 °F /  11.9 °C 65.8 °F /  18.8 °C
Dew Point: 58.5 °F /  14.7 °C 45.1 °F /  7.3 °C 51.6 °F /  10.9 °C
Humidity: 76% 45% 61%
Wind Speed: 8.9mph /  14.3km/h - 1.6mph /  2.5km/h
Wind Gust: 13mph /  20.9km/h - -
Wind- - ESE
Pressure: 30.2 in /  1021.3 hPa 30 in /  1016.9 hPa -
Precipitation: 0 in /  0.0 mm    
Historical Graphs
 
 
Tabular Data for March 18, 2020
Time Temperature Dew Point Pressure Wind Wind Speed Wind Gust Humidity Rainfall Rate (Hourly) solar
00:03 61.3 °F /  16.3 °C 46.4 °F /  8 °C 30.2in /  1021.3hPa ENE 0.9mph /  1.4km/h 2mph /  3.2km/h 58% 0in /  0.0mm 0 W/m2
00:08 61.2 °F /  16.2 °C 46.8 °F /  8.2 °C 30.2in /  1021.3hPa Calm   2mph /  3.2km/h 59% 0in /  0.0mm 0 W/m2
00:13 60.8 °F /  16 °C 46.4 °F /  8 °C 30.2in /  1021.3hPa SE 0.9mph /  1.4km/h 1mph /  1.6km/h 59% 0in /  0.0mm 0 W/m2
00:18 60.6 °F /  15.9 °C 46.2 °F /  7.9 °C 30.2in /  1021.3hPa Calm   1mph /  1.6km/h 59% 0in /  0.0mm 0 W/m2
00:23 60.4 °F /  15.8 °C 46.4 °F /  8 °C 30.2in /  1021.3hPa ESE 0.9mph /  1.4km/h 2mph /  3.2km/h 60% 0in /  0.0mm 0 W/m2
00:28 60.3 °F /  15.7 °C 46.8 °F /  8.2 °C 30.2in /  1021.3hPa ESE 0.9mph /  1.4km/h 1mph /  1.6km/h 61% 0in /  0.0mm 0 W/m2
00:33 60.1 °F /  15.6 °C 46.6 °F /  8.1 °C 30.2in /  1021.3hPa Calm   3mph /  4.8km/h 61% 0in /  0.0mm 0 W/m2
00:38 59.7 °F /  15.4 °C 46.2 °F /  7.9 °C 30.2in /  1021.3hPa SE 2mph /  3.2km/h 2mph /  3.2km/h 61% 0in /  0.0mm 0 W/m2
00:43 59.7 °F /  15.4 °C 46.2 °F /  7.9 °C 30.2in /  1021.0hPa SE 0.9mph /  1.4km/h 2mph /  3.2km/h 61% 0in /  0.0mm 0 W/m2
00:48 59.5 °F /  15.3 °C 46 °F /  7.8 °C 30.2in /  1021.0hPa SE 0.9mph /  1.4km/h 3mph /  4.8km/h 61% 0in /  0.0mm 0 W/m2
00:53 59.4 °F /  15.2 °C 46.4 °F /  8 °C 30.2in /  1021.0hPa Calm   3mph /  4.8km/h 62% 0in /  0.0mm 0 W/m2
00:58 59.4 °F /  15.2 °C 46.4 °F /  8 °C 30.2in /  1021.0hPa Calm   2mph /  3.2km/h 62% 0in /  0.0mm 0 W/m2
01:03 59.2 °F /  15.1 °C 46.2 °F /  7.9 °C 30.2in /  1021.0hPa ESE 2mph /  3.2km/h 3mph /  4.8km/h 62% 0in /  0.0mm 0 W/m2
01:08 59.2 °F /  15.1 °C 46.2 °F /  7.9 °C 30.2in /  1021.0hPa ESE 0.9mph /  1.4km/h 2mph /  3.2km/h 62% 0in /  0.0mm 0 W/m2
01:13 59.2 °F /  15.1 °C 46.2 °F /  7.9 °C 30.2in /  1021.0hPa ESE 0.9mph /  1.4km/h 2mph /  3.2km/h 62% 0in /  0.0mm 0 W/m2
01:18 59 °F /  15 °C 46 °F /  7.8 °C 30.2in /  1021.0hPa SE 2mph /  3.2km/h 3mph /  4.8km/h 62% 0in /  0.0mm 0 W/m2
01:23 58.8 °F /  14.9 °C 45.9 °F /  7.7 °C 30.1in /  1020.7hPa SE 0.9mph /  1.4km/h 2mph /  3.2km/h 62% 0in /  0.0mm 0 W/m2
01:28 58.6 °F /  14.8 °C 45.7 °F /  7.6 °C 30.1in /  1020.7hPa ESE 2mph /  3.2km/h 2mph /  3.2km/h 62% 0in /  0.0mm 0 W/m2
01:33 58.6 °F /  14.8 °C 45.7 °F /  7.6 °C 30.1in /  1020.7hPa Calm   2mph /  3.2km/h 62% 0in /  0.0mm 0 W/m2
01:38 58.5 °F /  14.7 °C 45.9 °F /  7.7 °C 30.1in /  1020.7hPa ESE 0.9mph /  1.4km/h 1mph /  1.6km/h 63% 0in /  0.0mm 0 W/m2
01:43 58.5 °F /  14.7 °C 45.9 °F /  7.7 °C 30.1in /  1020.7hPa ESE 0.9mph /  1.4km/h 1mph /  1.6km/h 63% 0in /  0.0mm 0 W/m2
01:48 58.1 °F /  14.5 °C 45.5 °F /  7.5 °C 30.1in /  1020.7hPa SE 0.9mph /  1.4km/h 2mph /  3.2km/h 63% 0in /  0.0mm 0 W/m2
01:53 57.9 °F /  14.4 °C 45.9 °F /  7.7 °C 30.1in /  1020.7hPa SE 0.9mph /  1.4km/h 2mph /  3.2km/h 64% 0in /  0.0mm 0 W/m2
01:58 57.7 °F /  14.3 °C 45.7 °F /  7.6 °C 30.1in /  1020.7hPa Calm   1mph /  1.6km/h 64% 0in /  0.0mm 0 W/m2
02:03 57.6 °F /  14.2 °C 45.9 °F /  7.7 °C 30.1in /  1020.7hPa Calm   2mph /  3.2km/h 65% 0in /  0.0mm 0 W/m2
02:08 57.4 °F /  14.1 °C 45.7 °F /  7.6 °C 30.1in /  1020.7hPa East 2mph /  3.2km/h 2mph /  3.2km/h 65% 0in /  0.0mm 0 W/m2
02:13 57.2 °F /  14 °C 45.5 °F /  7.5 °C 30.1in /  1020.7hPa Calm   3mph /  4.8km/h 65% 0in /  0.0mm 0 W/m2
02:18 57.4 °F /  14.1 °C 45.7 °F /  7.6 °C 30.1in /  1020.7hPa East 4mph /  6.4km/h 4mph /  6.4km/h 65% 0in /  0.0mm 0 W/m2
02:23 57.4 °F /  14.1 °C 45.7 °F /  7.6 °C 30.1in /  1020.7hPa Calm   2mph /  3.2km/h 65% 0in /  0.0mm 0 W/m2
02:28 57.6 °F /  14.2 °C 45.9 °F /  7.7 °C 30.1in /  1020.7hPa Calm   1mph /  1.6km/h 65% 0in /  0.0mm 0 W/m2
02:33 57.4 °F /  14.1 °C 46 °F /  7.8 °C 30.1in /  1020.7hPa ESE 2.9mph /  4.7km/h 3mph /  4.8km/h 66% 0in /  0.0mm 0 W/m2
02:38 57.2 °F /  14 °C 45.5 °F /  7.5 °C 30.1in /  1020.7hPa ESE 0.9mph /  1.4km/h 2mph /  3.2km/h 65% 0in /  0.0mm 0 W/m2
02:43 57 °F /  13.9 °C 45.3 °F /  7.4 °C 30.1in /  1020.7hPa ESE 2mph /  3.2km/h 2mph /  3.2km/h 65% 0in /  0.0mm 0 W/m2
02:48 57 °F /  13.9 °C 45.3 °F /  7.4 °C 30.1in /  1020.7hPa Calm   3mph /  4.8km/h 65% 0in /  0.0mm 0 W/m2
02:53 57.2 °F /  14 °C 45.5 °F /  7.5 °C 30.1in /  1020.7hPa ESE 0.9mph /  1.4km/h 4mph /  6.4km/h 65% 0in /  0.0mm 0 W/m2
02:58 57.2 °F /  14 °C 45.5 °F /  7.5 °C 30.1in /  1020.7hPa Calm   2mph /  3.2km/h 65% 0in /  0.0mm 0 W/m2
03:03 57 °F /  13.9 °C 45.3 °F /  7.4 °C 30.1in /  1020.7hPa ESE 0.9mph /  1.4km/h 4mph /  6.4km/h 65% 0in /  0.0mm 0 W/m2
03:08 56.8 °F /  13.8 °C 45.1 °F /  7.3 °C 30.1in /  1020.7hPa SE 0.9mph /  1.4km/h 2mph /  3.2km/h 65% 0in /  0.0mm 0 W/m2
03:13 56.8 °F /  13.8 °C 45.1 °F /  7.3 °C 30.1in /  1020.3hPa ESE 0.9mph /  1.4km/h 2mph /  3.2km/h 65% 0in /  0.0mm 0 W/m2
03:18 56.8 °F /  13.8 °C 45.1 °F /  7.3 °C 30.1in /  1020.3hPa ESE 2mph /  3.2km/h 2mph /  3.2km/h 65% 0in /  0.0mm 0 W/m2
03:23 56.8 °F /  13.8 °C 45.7 °F /  7.6 °C 30.1in /  1020.3hPa SE 2mph /  3.2km/h 2mph /  3.2km/h 66% 0in /  0.0mm 0 W/m2
03:28 56.8 °F /  13.8 °C 45.7 °F /  7.6 °C 30.1in /  1020.0hPa SE 0.9mph /  1.4km/h 3mph /  4.8km/h 66% 0in /  0.0mm 0 W/m2
03:33 56.7 °F /  13.7 °C 45.5 °F /  7.5 °C 30.1in /  1020.3hPa SE 2mph /  3.2km/h 2mph /  3.2km/h 66% 0in /  0.0mm 0 W/m2
03:38 56.5 °F /  13.6 °C 45.7 °F /  7.6 °C 30.1in /  1020.3hPa ESE 2.9mph /  4.7km/h 3mph /  4.8km/h 67% 0in /  0.0mm 0 W/m2
03:43 56.1 °F /  13.4 °C 45.3 °F /  7.4 °C 30.1in /  1020.3hPa SSE 2mph /  3.2km/h 2mph /  3.2km/h 67% 0in /  0.0mm 0 W/m2
03:48 56.1 °F /  13.4 °C 45.7 °F /  7.6 °C 30.1in /  1020.3hPa Calm   1mph /  1.6km/h 68% 0in /  0.0mm 0 W/m2
03:53 55.9 °F /  13.3 °C 45.5 °F /  7.5 °C 30.1in /  1020.3hPa Calm   1mph /  1.6km/h 68% 0in /  0.0mm 0 W/m2
03:58 55.8 °F /  13.2 °C 45.3 °F /  7.4 °C 30.1in /  1020.3hPa SSE 2mph /  3.2km/h 2mph /  3.2km/h 68% 0in /  0.0mm 0 W/m2
04:03 55.6 °F /  13.1 °C 45.5 °F /  7.5 °C 30.1in /  1020.3hPa SSE 0.9mph /  1.4km/h 1mph /  1.6km/h 69% 0in /  0.0mm 0 W/m2
04:08 55.4 °F /  13 °C 45.3 °F /  7.4 °C 30.1in /  1020.3hPa Calm   2mph /  3.2km/h 69% 0in /  0.0mm 0 W/m2
04:13 55.2 °F /  12.9 °C 45.1 °F /  7.3 °C 30.1in /  1020.3hPa Calm   1mph /  1.6km/h 69% 0in /  0.0mm 0 W/m2
04:18 55.4 °F /  13 °C 45.3 °F /  7.4 °C 30.1in /  1020.3hPa East 2mph /  3.2km/h 3mph /  4.8km/h 69% 0in /  0.0mm 0 W/m2
04:23 55.4 °F /  13 °C 45.9 °F /  7.7 °C 30.1in /  1020.3hPa Calm   1mph /  1.6km/h 70% 0in /  0.0mm 0 W/m2
04:28 55.2 °F /  12.9 °C 45.7 °F /  7.6 °C 30.1in /  1020.3hPa SE 0.9mph /  1.4km/h 1mph /  1.6km/h 70% 0in /  0.0mm 0 W/m2
04:33 55 °F /  12.8 °C 45.5 °F /  7.5 °C 30.1in /  1020.3hPa Calm     70% 0in /  0.0mm 0 W/m2
04:38 54.9 °F /  12.7 °C 45.7 °F /  7.6 °C 30.1in /  1020.3hPa Calm   1mph /  1.6km/h 71% 0in /  0.0mm 0 W/m2
04:43 54.5 °F /  12.5 °C 45.3 °F /  7.4 °C 30.1in /  1020.3hPa SE 0.9mph /  1.4km/h 1mph /  1.6km/h 71% 0in /  0.0mm 0 W/m2
04:48 54.1 °F /  12.3 °C 45.3 °F /  7.4 °C 30.1in /  1020.3hPa Calm   1mph /  1.6km/h 72% 0in /  0.0mm 0 W/m2
04:53 54 °F /  12.2 °C 45.5 °F /  7.5 °C 30.1in /  1020.0hPa SE 0.9mph /  1.4km/h 2mph /  3.2km/h 73% 0in /  0.0mm 0 W/m2
04:58 54 °F /  12.2 °C 45.5 °F /  7.5 °C 30.1in /  1020.3hPa ESE 2.9mph /  4.7km/h 3mph /  4.8km/h 73% 0in /  0.0mm 0 W/m2
05:03 54.1 °F /  12.3 °C 45.7 °F /  7.6 °C 30.1in /  1020.3hPa ESE 0.9mph /  1.4km/h 2mph /  3.2km/h 73% 0in /  0.0mm 0 W/m2
05:08 54.1 °F /  12.3 °C 45.7 °F /  7.6 °C 30.1in /  1020.0hPa ESE 2mph /  3.2km/h 2mph /  3.2km/h 73% 0in /  0.0mm 0 W/m2
05:13 54.1 °F /  12.3 °C 45.7 °F /  7.6 °C 30.1in /  1020.3hPa SSE 0.9mph /  1.4km/h 2mph /  3.2km/h 73% 0in /  0.0mm 0 W/m2
05:18 54.1 °F /  12.3 °C 45.7 °F /  7.6 °C 30.1in /  1020.3hPa East 0.9mph /  1.4km/h 2mph /  3.2km/h 73% 0in /  0.0mm 0 W/m2
05:23 54 °F /  12.2 °C 45.5 °F /  7.5 °C 30.1in /  1020.3hPa SE 0.9mph /  1.4km/h 2mph /  3.2km/h 73% 0in /  0.0mm 0 W/m2
05:28 54 °F /  12.2 °C 45.5 °F /  7.5 °C 30.1in /  1020.3hPa ESE 0.9mph /  1.4km/h 2mph /  3.2km/h 73% 0in /  0.0mm 0 W/m2
05:33 54.1 °F /  12.3 °C 45.7 °F /  7.6 °C 30.1in /  1020.3hPa Calm   1mph /  1.6km/h 73% 0in /  0.0mm 0 W/m2
05:38 54 °F /  12.2 °C 45.9 °F /  7.7 °C 30.1in /  1020.3hPa ESE 0.9mph /  1.4km/h 1mph /  1.6km/h 74% 0in /  0.0mm 0 W/m2
05:43 54 °F /  12.2 °C 45.9 °F /  7.7 °C 30.1in /  1020.3hPa ESE 0.9mph /  1.4km/h 2mph /  3.2km/h 74% 0in /  0.0mm 0 W/m2
05:48 54 °F /  12.2 °C 45.9 °F /  7.7 °C 30.1in /  1020.3hPa ESE 0.9mph /  1.4km/h 2mph /  3.2km/h 74% 0in /  0.0mm 0 W/m2
05:53 53.8 °F /  12.1 °C 45.7 °F /  7.6 °C 30.1in /  1020.3hPa ESE 0.9mph /  1.4km/h 1mph /  1.6km/h 74% 0in /  0.0mm 0 W/m2
05:58 53.8 °F /  12.1 °C 45.7 °F /  7.6 °C 30.1in /  1020.3hPa Calm   3mph /  4.8km/h 74% 0in /  0.0mm 0 W/m2
06:03 53.8 °F /  12.1 °C 46 °F /  7.8 °C 30.1in /  1020.3hPa East 0.9mph /  1.4km/h 3mph /  4.8km/h 75% 0in /  0.0mm 0 W/m2
06:08 53.8 °F /  12.1 °C 46 °F /  7.8 °C 30.1in /  1020.3hPa ESE 0.9mph /  1.4km/h 2mph /  3.2km/h 75% 0in /  0.0mm 0 W/m2
06:13 53.8 °F /  12.1 °C 46 °F /  7.8 °C 30.1in /  1020.3hPa Calm   1mph /  1.6km/h 75% 0in /  0.0mm 0 W/m2
06:18 53.6 °F /  12 °C 45.9 °F /  7.7 °C 30.1in /  1020.3hPa Calm   1mph /  1.6km/h 75% 0in /  0.0mm 0 W/m2
06:23 53.4 °F /  11.9 °C 45.7 °F /  7.6 °C 30.1in /  1020.3hPa Calm   1mph /  1.6km/h 75% 0in /  0.0mm 0 W/m2
06:28 53.4 °F /  11.9 °C 46 °F /  7.8 °C 30.1in /  1020.3hPa ESE 0.9mph /  1.4km/h 2mph /  3.2km/h 76% 0in /  0.0mm 0 W/m2
06:33 53.4 °F /  11.9 °C 46 °F /  7.8 °C 30.1in /  1020.3hPa SSE 0.9mph /  1.4km/h 2mph /  3.2km/h 76% 0in /  0.0mm 0 W/m2
06:38 53.4 °F /  11.9 °C 46 °F /  7.8 °C 30.1in /  1020.3hPa Calm   2mph /  3.2km/h 76% 0in /  0.0mm 0 W/m2
06:43 53.4 °F /  11.9 °C 46 °F /  7.8 °C 30.1in /  1020.3hPa SE 0.9mph /  1.4km/h 2mph /  3.2km/h 76% 0in /  0.0mm 0 W/m2
06:48 53.4 °F /  11.9 °C 46 °F /  7.8 °C 30.1in /  1020.3hPa SE 0.9mph /  1.4km/h 1mph /  1.6km/h 76% 0in /  0.0mm 0 W/m2
06:53 53.4 °F /  11.9 °C 46 °F /  7.8 °C 30.1in /  1020.3hPa ESE 0.9mph /  1.4km/h 2mph /  3.2km/h 76% 0in /  0.0mm 0 W/m2
06:58 53.4 °F /  11.9 °C 46 °F /  7.8 °C 30.1in /  1020.3hPa Calm   2mph /  3.2km/h 76% 0in /  0.0mm 0 W/m2
07:03 53.4 °F /  11.9 °C 46 °F /  7.8 °C 30.1in /  1020.3hPa SSE 0.9mph /  1.4km/h 2mph /  3.2km/h 76% 0in /  0.0mm 0 W/m2
07:08 53.4 °F /  11.9 °C 46 °F /  7.8 °C 30.1in /  1020.0hPa SSE 0.9mph /  1.4km/h 2mph /  3.2km/h 76% 0in /  0.0mm 0 W/m2
07:13 53.6 °F /  12 °C 46.2 °F /  7.9 °C 30.1in /  1020.3hPa Calm   2mph /  3.2km/h 76% 0in /  0.0mm 0 W/m2
07:18 53.6 °F /  12 °C 46.2 °F /  7.9 °C 30.1in /  1020.3hPa Calm   2mph /  3.2km/h 76% 0in /  0.0mm 0 W/m2
07:23 53.8 °F /  12.1 °C 46.4 °F /  8 °C 30.1in /  1020.3hPa SSE 0.9mph /  1.4km/h 2mph /  3.2km/h 76% 0in /  0.0mm 5 W/m2
07:28 53.8 °F /  12.1 °C 46.4 °F /  8 °C 30.1in /  1020.3hPa SSE 0.9mph /  1.4km/h 2mph /  3.2km/h 76% 0in /  0.0mm 9 W/m2
07:33 53.8 °F /  12.1 °C 46.4 °F /  8 °C 30.1in /  1020.3hPa Calm   1mph /  1.6km/h 76% 0in /  0.0mm 12 W/m2
07:38 53.8 °F /  12.1 °C 46.4 °F /  8 °C 30.1in /  1020.3hPa Calm     76% 0in /  0.0mm 14 W/m2
07:43 53.8 °F /  12.1 °C 46.4 °F /  8 °C 30.1in /  1020.3hPa Calm     76% 0in /  0.0mm 16 W/m2
07:49 53.6 °F /  12 °C 46.2 °F /  7.9 °C 30.1in /  1020.3hPa Calm     76% 0in /  0.0mm 19 W/m2
07:54 53.6 °F /  12 °C 46.2 °F /  7.9 °C 30.1in /  1020.3hPa Calm     76% 0in /  0.0mm 21 W/m2
07:59 53.8 °F /  12.1 °C 46.4 °F /  8 °C 30.1in /  1020.3hPa Calm   1mph /  1.6km/h 76% 0in /  0.0mm 25 W/m2
08:04 53.8 °F /  12.1 °C 46.4 °F /  8 °C 30.1in /  1020.3hPa Calm   2mph /  3.2km/h 76% 0in /  0.0mm 26 W/m2
08:09 54 °F /  12.2 °C 46.6 °F /  8.1 °C 30.1in /  1020.3hPa NE 0.9mph /  1.4km/h 2mph /  3.2km/h 76% 0in /  0.0mm 28 W/m2
08:14 54.1 °F /  12.3 °C 46.8 °F /  8.2 °C 30.1in /  1020.3hPa Calm   1mph /  1.6km/h 76% 0in /  0.0mm 30 W/m2
08:19 54.1 °F /  12.3 °C 46.4 °F /  8 °C 30.1in /  1020.3hPa NE 0.9mph /  1.4km/h 2mph /  3.2km/h 75% 0in /  0.0mm 32 W/m2
08:24 54.1 °F /  12.3 °C 46.4 °F /  8 °C 30.1in /  1020.3hPa NE 2mph /  3.2km/h 2mph /  3.2km/h 75% 0in /  0.0mm 33 W/m2
08:29 54.3 °F /  12.4 °C 46.6 °F /  8.1 °C 30.1in /  1020.3hPa North 2mph /  3.2km/h 2mph /  3.2km/h 75% 0in /  0.0mm 69 W/m2
08:34 54.5 °F /  12.5 °C 46.8 °F /  8.2 °C 30.1in /  1020.3hPa NE 2mph /  3.2km/h 3mph /  4.8km/h 75% 0in /  0.0mm 91 W/m2
08:39 54.7 °F /  12.6 °C 46.9 °F /  8.3 °C 30.1in /  1020.7hPa Calm   2mph /  3.2km/h 75% 0in /  0.0mm 90 W/m2
08:44 54.9 °F /  12.7 °C 47.1 °F /  8.4 °C 30.1in /  1020.7hPa Calm   1mph /  1.6km/h 75% 0in /  0.0mm 40 W/m2
08:49 55 °F /  12.8 °C 47.3 °F /  8.5 °C 30.1in /  1020.3hPa Calm   1mph /  1.6km/h 75% 0in /  0.0mm 42 W/m2
08:54 55.2 °F /  12.9 °C 47.1 °F /  8.4 °C 30.1in /  1020.3hPa East 2mph /  3.2km/h 3mph /  4.8km/h 74% 0in /  0.0mm 76 W/m2
08:59 55.4 °F /  13 °C 47.3 °F /  8.5 °C 30.1in /  1020.3hPa NNE 0.9mph /  1.4km/h 2mph /  3.2km/h 74% 0in /  0.0mm 116 W/m2
09:04 55.8 °F /  13.2 °C 47.7 °F /  8.7 °C 30.1in /  1020.3hPa SE 0.9mph /  1.4km/h 2mph /  3.2km/h 74% 0in /  0.0mm 172 W/m2
09:09 55.9 °F /  13.3 °C 47.5 °F /  8.6 °C 30.1in /  1020.3hPa NNE 0.9mph /  1.4km/h 2mph /  3.2km/h 73% 0in /  0.0mm 181 W/m2
09:33 58.3 °F /  14.6 °C 48.6 °F /  9.2 °C 30.1in /  1020.7hPa Calm   4mph /  6.4km/h 70% 0in /  0.0mm 53 W/m2
09:38 58.6 °F /  14.8 °C 48.9 °F /  9.4 °C 30.1in /  1020.7hPa ENE 0.9mph /  1.4km/h 3mph /  4.8km/h 70% 0in /  0.0mm 53 W/m2
09:43 59.2 °F /  15.1 °C 48.6 °F /  9.2 °C 30.1in /  1020.7hPa ESE 2mph /  3.2km/h 5mph /  8km/h 68% 0in /  0.0mm 54 W/m2
09:48 59.5 °F /  15.3 °C 48.9 °F /  9.4 °C 30.1in /  1020.7hPa NNE 2mph /  3.2km/h 5mph /  8km/h 68% 0in /  0.0mm 54 W/m2
09:53 60.1 °F /  15.6 °C 49.5 °F /  9.7 °C 30.1in /  1020.7hPa Calm   1mph /  1.6km/h 68% 0in /  0.0mm 56 W/m2
09:58 60.4 °F /  15.8 °C 49.1 °F /  9.5 °C 30.1in /  1020.7hPa ENE 4.9mph /  7.9km/h 5mph /  8km/h 66% 0in /  0.0mm 56 W/m2
10:03 61 °F /  16.1 °C 50 °F /  10 °C 30.1in /  1020.7hPa NE 4mph /  6.4km/h 4mph /  6.4km/h 67% 0in /  0.0mm 58 W/m2
10:08 61.3 °F /  16.3 °C 49.8 °F /  9.9 °C 30.1in /  1020.7hPa NE 0.9mph /  1.4km/h 3mph /  4.8km/h 66% 0in /  0.0mm 58 W/m2
10:13 61.9 °F /  16.6 °C 50.4 °F /  10.2 °C 30.1in /  1020.7hPa ESE 4mph /  6.4km/h 8mph /  12.9km/h 66% 0in /  0.0mm 60 W/m2
10:18 62.1 °F /  16.7 °C 50.2 °F /  10.1 °C 30.1in /  1020.7hPa ESE 2.9mph /  4.7km/h 7mph /  11.3km/h 65% 0in /  0.0mm 60 W/m2
10:23 62.2 °F /  16.8 °C 50.4 °F /  10.2 °C 30.1in /  1020.7hPa NE 2mph /  3.2km/h 8mph /  12.9km/h 65% 0in /  0.0mm 62 W/m2
10:28 62.8 °F /  17.1 °C 50.9 °F /  10.5 °C 30.1in /  1020.7hPa NE 4.9mph /  7.9km/h 5mph /  8km/h 65% 0in /  0.0mm 62 W/m2
10:33 63.1 °F /  17.3 °C 51.3 °F /  10.7 °C 30.1in /  1020.7hPa NNW 2mph /  3.2km/h 7mph /  11.3km/h 65% 0in /  0.0mm 63 W/m2
10:38 63.3 °F /  17.4 °C 51.4 °F /  10.8 °C 30.1in /  1020.3hPa East 2mph /  3.2km/h 4mph /  6.4km/h 65% 0in /  0.0mm 65 W/m2
10:43 63.7 °F /  17.6 °C 51.3 °F /  10.7 °C 30.1in /  1020.3hPa NNE 2.9mph /  4.7km/h 4mph /  6.4km/h 64% 0in /  0.0mm 65 W/m2
10:48 64.2 °F /  17.9 °C 51.8 °F /  11 °C 30.1in /  1020.3hPa NNE 2.9mph /  4.7km/h 7mph /  11.3km/h 64% 0in /  0.0mm 65 W/m2
10:53 64.8 °F /  18.2 °C 52.7 °F /  11.5 °C 30.1in /  1020.3hPa Calm   3mph /  4.8km/h 65% 0in /  0.0mm 67 W/m2
10:58 65.7 °F /  18.7 °C 53.2 °F /  11.8 °C 30.1in /  1020.3hPa NE 2mph /  3.2km/h 4mph /  6.4km/h 64% 0in /  0.0mm 69 W/m2
11:03 66 °F /  18.9 °C 52.7 °F /  11.5 °C 30.1in /  1020.3hPa NNE 8.9mph /  14.3km/h 9mph /  14.5km/h 62% 0in /  0.0mm 69 W/m2
11:08 66.4 °F /  19.1 °C 52.9 °F /  11.6 °C 30.1in /  1020.3hPa ENE 2.9mph /  4.7km/h 6mph /  9.7km/h 62% 0in /  0.0mm 72 W/m2
11:13 66.7 °F /  19.3 °C 53.2 °F /  11.8 °C 30.1in /  1020.3hPa ENE 4mph /  6.4km/h 6mph /  9.7km/h 62% 0in /  0.0mm 74 W/m2
11:18 67.3 °F /  19.6 °C 53.4 °F /  11.9 °C 30.1in /  1020.3hPa NNE 2mph /  3.2km/h 8mph /  12.9km/h 61% 0in /  0.0mm 76 W/m2
11:23 67.5 °F /  19.7 °C 53.6 °F /  12 °C 30.1in /  1020.3hPa ENE 2.9mph /  4.7km/h 9mph /  14.5km/h 61% 0in /  0.0mm 79 W/m2
11:28 67.8 °F /  19.9 °C 53.4 °F /  11.9 °C 30.1in /  1020.3hPa East 6mph /  9.7km/h 7mph /  11.3km/h 60% 0in /  0.0mm 81 W/m2
11:33 68.2 °F /  20.1 °C 53.8 °F /  12.1 °C 30.1in /  1020.0hPa East 6.9mph /  11.1km/h 9mph /  14.5km/h 60% 0in /  0.0mm 81 W/m2
11:38 68.4 °F /  20.2 °C 53.4 °F /  11.9 °C 30.1in /  1020.0hPa South 2mph /  3.2km/h 8mph /  12.9km/h 59% 0in /  0.0mm 102 W/m2
11:43 68.5 °F /  20.3 °C 53.6 °F /  12 °C 30.1in /  1020.0hPa East 2.9mph /  4.7km/h 4mph /  6.4km/h 59% 0in /  0.0mm 420 W/m2
11:48 68.9 °F /  20.5 °C 53.6 °F /  12 °C 30.1in /  1020.0hPa East 2.9mph /  4.7km/h 9mph /  14.5km/h 58% 0in /  0.0mm 548 W/m2
11:53 69.1 °F /  20.6 °C 53.6 °F /  12 °C 30.1in /  1020.0hPa SE 6mph /  9.7km/h 9mph /  14.5km/h 58% 0in /  0.0mm 559 W/m2
11:58 69.4 °F /  20.8 °C 54 °F /  12.2 °C 30.1in /  1020.0hPa NNE 2mph /  3.2km/h 9mph /  14.5km/h 58% 0in /  0.0mm 566 W/m2
12:03 70 °F /  21.1 °C 54 °F /  12.2 °C 30.1in /  1020.0hPa ENE 4mph /  6.4km/h 9mph /  14.5km/h 57% 0in /  0.0mm 575 W/m2
12:08 70.2 °F /  21.2 °C 54.1 °F /  12.3 °C 30.1in /  1020.0hPa ENE 8.1mph /  13km/h 8mph /  12.9km/h 57% 0in /  0.0mm 584 W/m2
12:13 70.3 °F /  21.3 °C 54 °F /  12.2 °C 30.1in /  1020.0hPa NNE 2mph /  3.2km/h 9mph /  14.5km/h 56% 0in /  0.0mm 591 W/m2
12:18 70.9 °F /  21.6 °C 54.3 °F /  12.4 °C 30.1in /  1020.0hPa SSE 2mph /  3.2km/h 6mph /  9.7km/h 56% 0in /  0.0mm 592 W/m2
12:23 71.2 °F /  21.8 °C 54.7 °F /  12.6 °C 30.1in /  1020.0hPa East 2mph /  3.2km/h 8mph /  12.9km/h 56% 0in /  0.0mm 603 W/m2
12:28 71.8 °F /  22.1 °C 55.2 °F /  12.9 °C 30.1in /  1019.6hPa East 6.9mph /  11.1km/h 9mph /  14.5km/h 56% 0in /  0.0mm 608 W/m2
12:33 72.1 °F /  22.3 °C 55 °F /  12.8 °C 30.1in /  1019.6hPa North 0.9mph /  1.4km/h 8mph /  12.9km/h 55% 0in /  0.0mm 606 W/m2
12:38 72.7 °F /  22.6 °C 55.6 °F /  13.1 °C 30.1in /  1019.6hPa NE 6.9mph /  11.1km/h 11mph /  17.7km/h 55% 0in /  0.0mm 617 W/m2
12:43 72.9 °F /  22.7 °C 55.2 °F /  12.9 °C 30.1in /  1019.6hPa East 2.9mph /  4.7km/h 8mph /  12.9km/h 54% 0in /  0.0mm 622 W/m2
12:48 73 °F /  22.8 °C 55.4 °F /  13 °C 30.1in /  1019.6hPa ESE 2.9mph /  4.7km/h 7mph /  11.3km/h 54% 0in /  0.0mm 628 W/m2
12:53 73 °F /  22.8 °C 54.9 °F /  12.7 °C 30.1in /  1019.3hPa NE 2mph /  3.2km/h 8mph /  12.9km/h 53% 0in /  0.0mm 629 W/m2
12:58 73.2 °F /  22.9 °C 55.6 °F /  13.1 °C 30.1in /  1019.3hPa NNE 4mph /  6.4km/h 7mph /  11.3km/h 54% 0in /  0.0mm 633 W/m2
13:03 73.8 °F /  23.2 °C 55.6 °F /  13.1 °C 30.1in /  1019.3hPa NE 2.9mph /  4.7km/h 10mph /  16.1km/h 53% 0in /  0.0mm 633 W/m2
13:08 73.9 °F /  23.3 °C 55.8 °F /  13.2 °C 30.1in /  1019.3hPa ESE 2mph /  3.2km/h 7mph /  11.3km/h 53% 0in /  0.0mm 638 W/m2
13:13 74.1 °F /  23.4 °C 55.4 °F /  13 °C 30.1in /  1019.3hPa East 4.9mph /  7.9km/h 11mph /  17.7km/h 52% 0in /  0.0mm 636 W/m2
13:18 74.3 °F /  23.5 °C 55.6 °F /  13.1 °C 30.1in /  1019.0hPa East 2mph /  3.2km/h 6mph /  9.7km/h 52% 0in /  0.0mm 638 W/m2
13:23 74.7 °F /  23.7 °C 55.9 °F /  13.3 °C 30.1in /  1019.0hPa East 2mph /  3.2km/h 11mph /  17.7km/h 52% 0in /  0.0mm 633 W/m2
13:28 75 °F /  23.9 °C 55.6 °F /  13.1 °C 30.1in /  1019.0hPa North 0.9mph /  1.4km/h 5mph /  8km/h 51% 0in /  0.0mm 633 W/m2
13:33 75 °F /  23.9 °C 55 °F /  12.8 °C 30.1in /  1019.0hPa ESE 2.9mph /  4.7km/h 9mph /  14.5km/h 50% 0in /  0.0mm 635 W/m2
13:38 75.2 °F /  24 °C 55.8 °F /  13.2 °C 30.1in /  1019.0hPa East 2mph /  3.2km/h 5mph /  8km/h 51% 0in /  0.0mm 631 W/m2
13:43 75.7 °F /  24.3 °C 56.3 °F /  13.5 °C 30.1in /  1019.0hPa SE 0.9mph /  1.4km/h 9mph /  14.5km/h 51% 0in /  0.0mm 635 W/m2
13:48 76.1 °F /  24.5 °C 56.1 °F /  13.4 °C 30.1in /  1019.0hPa ENE 0.9mph /  1.4km/h 7mph /  11.3km/h 50% 0in /  0.0mm 633 W/m2
13:53 76.5 °F /  24.7 °C 56.5 °F /  13.6 °C 30.1in /  1019.0hPa ESE 2mph /  3.2km/h 4mph /  6.4km/h 50% 0in /  0.0mm 635 W/m2
13:59 76.8 °F /  24.9 °C 56.3 °F /  13.5 °C 30.1in /  1019.0hPa ENE 0.9mph /  1.4km/h 7mph /  11.3km/h 49% 0in /  0.0mm 633 W/m2
14:04 76.8 °F /  24.9 °C 56.3 °F /  13.5 °C 30.1in /  1019.0hPa NNE 0.9mph /  1.4km/h 5mph /  8km/h 49% 0in /  0.0mm 635 W/m2
14:09 76.8 °F /  24.9 °C 56.3 °F /  13.5 °C 30.1in /  1019.0hPa East 2mph /  3.2km/h 7mph /  11.3km/h 49% 0in /  0.0mm 628 W/m2
14:14 76.8 °F /  24.9 °C 56.3 °F /  13.5 °C 30.1in /  1019.0hPa NE 0.9mph /  1.4km/h 5mph /  8km/h 49% 0in /  0.0mm 622 W/m2
14:19 77.2 °F /  25.1 °C 56.5 °F /  13.6 °C 30.1in /  1019.0hPa ESE 2.9mph /  4.7km/h 4mph /  6.4km/h 49% 0in /  0.0mm 617 W/m2
14:24 77.2 °F /  25.1 °C 55.9 °F /  13.3 °C 30.1in /  1019.0hPa NE 6mph /  9.7km/h 13mph /  20.9km/h 48% 0in /  0.0mm 615 W/m2
14:29 77.2 °F /  25.1 °C 56.5 °F /  13.6 °C 30.1in /  1018.6hPa SSE 6mph /  9.7km/h 9mph /  14.5km/h 49% 0in /  0.0mm 610 W/m2
14:34 77.2 °F /  25.1 °C 57 °F /  13.9 °C 30.1in /  1018.6hPa ENE 4mph /  6.4km/h 5mph /  8km/h 50% 0in /  0.0mm 603 W/m2
14:39 77.5 °F /  25.3 °C 56.8 °F /  13.8 °C 30.1in /  1018.6hPa ENE 4mph /  6.4km/h 7mph /  11.3km/h 49% 0in /  0.0mm 599 W/m2
14:44 77.7 °F /  25.4 °C 56.5 °F /  13.6 °C 30.1in /  1018.6hPa SSE 8.9mph /  14.3km/h 10mph /  16.1km/h 48% 0in /  0.0mm 589 W/m2
14:49 77.7 °F /  25.4 °C 57 °F /  13.9 °C 30.1in /  1018.6hPa SSE 4mph /  6.4km/h 11mph /  17.7km/h 49% 0in /  0.0mm 585 W/m2
14:54 78.1 °F /  25.6 °C 57.4 °F /  14.1 °C 30.1in /  1018.6hPa ENE 2mph /  3.2km/h 6mph /  9.7km/h 49% 0in /  0.0mm 582 W/m2
14:59 78.4 °F /  25.8 °C 57.2 °F /  14 °C 30.1in /  1018.3hPa NE 4mph /  6.4km/h 5mph /  8km/h 48% 0in /  0.0mm 580 W/m2
15:04 78.4 °F /  25.8 °C 57.2 °F /  14 °C 30.1in /  1018.3hPa South 0.9mph /  1.4km/h 4mph /  6.4km/h 48% 0in /  0.0mm 575 W/m2
15:09 78.8 °F /  26 °C 57.4 °F /  14.1 °C 30.1in /  1018.3hPa East 4mph /  6.4km/h 9mph /  14.5km/h 48% 0in /  0.0mm 570 W/m2
15:14 78.8 °F /  26 °C 56.8 °F /  13.8 °C 30.1in /  1018.3hPa ENE 2.9mph /  4.7km/h 11mph /  17.7km/h 47% 0in /  0.0mm 564 W/m2
15:19 79 °F /  26.1 °C 57.6 °F /  14.2 °C 30.1in /  1018.3hPa ENE 2mph /  3.2km/h 7mph /  11.3km/h 48% 0in /  0.0mm 554 W/m2
15:24 79.2 °F /  26.2 °C 57.2 °F /  14 °C 30.1in /  1018.3hPa ESE 2mph /  3.2km/h 11mph /  17.7km/h 47% 0in /  0.0mm 547 W/m2
15:29 79.7 °F /  26.5 °C 57.7 °F /  14.3 °C 30.1in /  1018.3hPa ESE 4.9mph /  7.9km/h 5mph /  8km/h 47% 0in /  0.0mm 538 W/m2
15:34 80.1 °F /  26.7 °C 58.1 °F /  14.5 °C 30.1in /  1018.0hPa SSE 2mph /  3.2km/h 7mph /  11.3km/h 47% 0in /  0.0mm 533 W/m2
15:39 80.2 °F /  26.8 °C 57.6 °F /  14.2 °C 30.1in /  1018.0hPa NE 2.9mph /  4.7km/h 6mph /  9.7km/h 46% 0in /  0.0mm 529 W/m2
15:44 80.2 °F /  26.8 °C 57.6 °F /  14.2 °C 30.1in /  1018.0hPa NNW 0.9mph /  1.4km/h 9mph /  14.5km/h 46% 0in /  0.0mm 520 W/m2
15:49 80.2 °F /  26.8 °C 57.6 °F /  14.2 °C 30.1in /  1018.0hPa ENE 2mph /  3.2km/h 7mph /  11.3km/h 46% 0in /  0.0mm 513 W/m2
15:54 80.4 °F /  26.9 °C 57.7 °F /  14.3 °C 30.1in /  1017.6hPa Calm   9mph /  14.5km/h 46% 0in /  0.0mm 506 W/m2
15:59 81 °F /  27.2 °C 58.3 °F /  14.6 °C 30.1in /  1017.6hPa Calm   7mph /  11.3km/h 46% 0in /  0.0mm 501 W/m2
16:04 81.1 °F /  27.3 °C 57.7 °F /  14.3 °C 30.1in /  1017.6hPa ENE 2mph /  3.2km/h 5mph /  8km/h 45% 0in /  0.0mm 499 W/m2
16:09 81.1 °F /  27.3 °C 57.7 °F /  14.3 °C 30.1in /  1017.6hPa NE 2.9mph /  4.7km/h 8mph /  12.9km/h 45% 0in /  0.0mm 497 W/m2
16:14 81.1 °F /  27.3 °C 57.7 °F /  14.3 °C 30.1in /  1017.6hPa SE 4mph /  6.4km/h 7mph /  11.3km/h 45% 0in /  0.0mm 487 W/m2
16:20 81.1 °F /  27.3 °C 58.5 °F /  14.7 °C 30.1in /  1017.6hPa North 2mph /  3.2km/h 10mph /  16.1km/h 46% 0in /  0.0mm 485 W/m2
16:25 81.3 °F /  27.4 °C 57.9 °F /  14.4 °C 30.1in /  1017.6hPa North 4mph /  6.4km/h 8mph /  12.9km/h 45% 0in /  0.0mm 480 W/m2
16:30 81.1 °F /  27.3 °C 57.7 °F /  14.3 °C 30.1in /  1017.6hPa ESE 4mph /  6.4km/h 6mph /  9.7km/h 45% 0in /  0.0mm 469 W/m2
16:35 81.3 °F /  27.4 °C 57.9 °F /  14.4 °C 30.1in /  1017.6hPa ENE 2.9mph /  4.7km/h 8mph /  12.9km/h 45% 0in /  0.0mm 452 W/m2
16:40 81.1 °F /  27.3 °C 57.7 °F /  14.3 °C 30.1in /  1017.6hPa ENE 0.9mph /  1.4km/h 6mph /  9.7km/h 45% 0in /  0.0mm 436 W/m2
16:45 81.1 °F /  27.3 °C 57.7 °F /  14.3 °C 30.1in /  1017.6hPa East 0.9mph /  1.4km/h 4mph /  6.4km/h 45% 0in /  0.0mm 415 W/m2
16:50 81.1 °F /  27.3 °C 57.7 °F /  14.3 °C 30.1in /  1017.6hPa East 2.9mph /  4.7km/h 6mph /  9.7km/h 45% 0in /  0.0mm 404 W/m2
16:55 81.1 °F /  27.3 °C 57.7 °F /  14.3 °C 30.1in /  1017.6hPa ESE 2mph /  3.2km/h 3mph /  4.8km/h 45% 0in /  0.0mm 387 W/m2
17:00 81.1 °F /  27.3 °C 57.7 °F /  14.3 °C 30.1in /  1017.6hPa East 2mph /  3.2km/h 4mph /  6.4km/h 45% 0in /  0.0mm 371 W/m2
17:05 81.1 °F /  27.3 °C 57.7 °F /  14.3 °C 30.1in /  1017.6hPa East 4.9mph /  7.9km/h 9mph /  14.5km/h 45% 0in /  0.0mm 362 W/m2
17:10 80.8 °F /  27.1 °C 57.4 °F /  14.1 °C 30in /  1017.3hPa East 2.9mph /  4.7km/h 6mph /  9.7km/h 45% 0in /  0.0mm 350 W/m2
17:15 80.8 °F /  27.1 °C 58.1 °F /  14.5 °C 30in /  1017.3hPa East 0.9mph /  1.4km/h 4mph /  6.4km/h 46% 0in /  0.0mm 336 W/m2
17:20 80.8 °F /  27.1 °C 58.1 °F /  14.5 °C 30.1in /  1017.6hPa East 2.9mph /  4.7km/h 4mph /  6.4km/h 46% 0in /  0.0mm 329 W/m2
17:25 80.8 °F /  27.1 °C 58.1 °F /  14.5 °C 30.1in /  1017.6hPa ENE 2.9mph /  4.7km/h 7mph /  11.3km/h 46% 0in /  0.0mm 306 W/m2
17:30 80.8 °F /  27.1 °C 57.4 °F /  14.1 °C 30in /  1017.3hPa East 2.9mph /  4.7km/h 4mph /  6.4km/h 45% 0in /  0.0mm 285 W/m2
17:35 80.4 °F /  26.9 °C 57.2 °F /  14 °C 30in /  1017.3hPa ESE 6mph /  9.7km/h 6mph /  9.7km/h 45% 0in /  0.0mm 290 W/m2
17:40 80.2 °F /  26.8 °C 57.6 °F /  14.2 °C 30in /  1017.3hPa ENE 2mph /  3.2km/h 4mph /  6.4km/h 46% 0in /  0.0mm 279 W/m2
17:45 80.2 °F /  26.8 °C 57.6 °F /  14.2 °C 30in /  1017.3hPa ESE 4mph /  6.4km/h 8mph /  12.9km/h 46% 0in /  0.0mm 269 W/m2
17:50 80.1 °F /  26.7 °C 57.4 °F /  14.1 °C 30in /  1017.3hPa NNE 2mph /  3.2km/h 6mph /  9.7km/h 46% 0in /  0.0mm 251 W/m2
17:55 79.9 °F /  26.6 °C 57.9 °F /  14.4 °C 30in /  1017.3hPa NNW 2mph /  3.2km/h 5mph /  8km/h 47% 0in /  0.0mm 241 W/m2
18:00 79.9 °F /  26.6 °C 57.2 °F /  14 °C 30in /  1017.3hPa ESE 2mph /  3.2km/h 6mph /  9.7km/h 46% 0in /  0.0mm 121 W/m2
18:05 79.7 °F /  26.5 °C 57.7 °F /  14.3 °C 30in /  1017.3hPa SSE 0.9mph /  1.4km/h 4mph /  6.4km/h 47% 0in /  0.0mm 211 W/m2
18:10 79.3 °F /  26.3 °C 57.4 °F /  14.1 °C 30in /  1017.3hPa ESE 0.9mph /  1.4km/h 7mph /  11.3km/h 47% 0in /  0.0mm 200 W/m2
18:15 79 °F /  26.1 °C 57 °F /  13.9 °C 30in /  1017.3hPa East 4mph /  6.4km/h 8mph /  12.9km/h 47% 0in /  0.0mm 181 W/m2
18:20 79 °F /  26.1 °C 57 °F /  13.9 °C 30in /  1016.9hPa NE 2mph /  3.2km/h 4mph /  6.4km/h 47% 0in /  0.0mm 167 W/m2
18:25 79 °F /  26.1 °C 57.6 °F /  14.2 °C 30in /  1017.3hPa SSE 2mph /  3.2km/h 8mph /  12.9km/h 48% 0in /  0.0mm 155 W/m2
18:30 78.4 °F /  25.8 °C 56.5 °F /  13.6 °C 30in /  1017.3hPa East 2mph /  3.2km/h 4mph /  6.4km/h 47% 0in /  0.0mm 141 W/m2
18:35 78.3 °F /  25.7 °C 57 °F /  13.9 °C 30in /  1017.3hPa ENE 2mph /  3.2km/h 4mph /  6.4km/h 48% 0in /  0.0mm 123 W/m2
18:40 78.1 °F /  25.6 °C 56.8 °F /  13.8 °C 30in /  1017.3hPa East 4mph /  6.4km/h 10mph /  16.1km/h 48% 0in /  0.0mm 109 W/m2
18:45 77.5 °F /  25.3 °C 56.3 °F /  13.5 °C 30in /  1017.3hPa East 2mph /  3.2km/h 4mph /  6.4km/h 48% 0in /  0.0mm 60 W/m2
18:50 77.2 °F /  25.1 °C 56.5 °F /  13.6 °C 30in /  1017.3hPa Calm   10mph /  16.1km/h 49% 0in /  0.0mm 40 W/m2
18:55 76.6 °F /  24.8 °C 56.7 °F /  13.7 °C 30in /  1017.3hPa East 2mph /  3.2km/h 6mph /  9.7km/h 50% 0in /  0.0mm 37 W/m2
19:00 76.3 °F /  24.6 °C 56.8 °F /  13.8 °C 30in /  1017.3hPa East 2.9mph /  4.7km/h 4mph /  6.4km/h 51% 0in /  0.0mm 33 W/m2
19:05 75.9 °F /  24.4 °C 56.5 °F /  13.6 °C 30in /  1017.3hPa East 0.9mph /  1.4km/h 6mph /  9.7km/h 51% 0in /  0.0mm 30 W/m2
19:10 75.6 °F /  24.2 °C 56.7 °F /  13.7 °C 30in /  1017.3hPa East 4mph /  6.4km/h 4mph /  6.4km/h 52% 0in /  0.0mm 25 W/m2
19:15 75.4 °F /  24.1 °C 56.5 °F /  13.6 °C 30in /  1017.3hPa East 0.9mph /  1.4km/h 3mph /  4.8km/h 52% 0in /  0.0mm 19 W/m2
19:20 75 °F /  23.9 °C 56.1 °F /  13.4 °C 30in /  1017.3hPa Calm   3mph /  4.8km/h 52% 0in /  0.0mm 14 W/m2
19:25 74.8 °F /  23.8 °C 56.5 °F /  13.6 °C 30in /  1017.3hPa East 0.9mph /  1.4km/h 2mph /  3.2km/h 53% 0in /  0.0mm 12 W/m2
19:30 74.5 °F /  23.6 °C 56.7 °F /  13.7 °C 30in /  1017.3hPa East 0.9mph /  1.4km/h 1mph /  1.6km/h 54% 0in /  0.0mm 9 W/m2
19:35 73.9 °F /  23.3 °C 56.3 °F /  13.5 °C 30in /  1017.3hPa ENE 0.9mph /  1.4km/h 4mph /  6.4km/h 54% 0in /  0.0mm 7 W/m2
19:40 73.6 °F /  23.1 °C 56.5 °F /  13.6 °C 30in /  1017.3hPa SE 0.9mph /  1.4km/h 3mph /  4.8km/h 55% 0in /  0.0mm 0 W/m2
19:45 73.2 °F /  22.9 °C 56.7 °F /  13.7 °C 30.1in /  1017.6hPa East 0.9mph /  1.4km/h 2mph /  3.2km/h 56% 0in /  0.0mm 0 W/m2
19:50 72.9 °F /  22.7 °C 56.3 °F /  13.5 °C 30.1in /  1017.6hPa Calm   1mph /  1.6km/h 56% 0in /  0.0mm 0 W/m2
19:55 72.3 °F /  22.4 °C 56.3 °F /  13.5 °C 30in /  1017.3hPa Calm     57% 0in /  0.0mm 0 W/m2
20:00 72 °F /  22.2 °C 56.3 °F /  13.5 °C 30in /  1017.3hPa Calm     58% 0in /  0.0mm 0 W/m2
20:05 71.4 °F /  21.9 °C 56.3 °F /  13.5 °C 30in /  1017.3hPa East 2mph /  3.2km/h 2mph /  3.2km/h 59% 0in /  0.0mm 0 W/m2
20:10 71.1 °F /  21.7 °C 55.9 °F /  13.3 °C 30.1in /  1017.6hPa Calm   1mph /  1.6km/h 59% 0in /  0.0mm 0 W/m2
20:15 70.9 °F /  21.6 °C 55.8 °F /  13.2 °C 30.1in /  1017.6hPa ESE 2.9mph /  4.7km/h 3mph /  4.8km/h 59% 0in /  0.0mm 0 W/m2
20:20 70.7 °F /  21.5 °C 55.2 °F /  12.9 °C 30.1in /  1017.6hPa East 6mph /  9.7km/h 7mph /  11.3km/h 58% 0in /  0.0mm 0 W/m2
20:25 71.1 °F /  21.7 °C 55.6 °F /  13.1 °C 30.1in /  1017.6hPa ENE 0.9mph /  1.4km/h 2mph /  3.2km/h 58% 0in /  0.0mm 0 W/m2
20:30 71.1 °F /  21.7 °C 55.6 °F /  13.1 °C 30.1in /  1017.6hPa ENE 0.9mph /  1.4km/h 4mph /  6.4km/h 58% 0in /  0.0mm 0 W/m2
20:35 71.1 °F /  21.7 °C 55.6 °F /  13.1 °C 30in /  1017.3hPa ENE 2mph /  3.2km/h 5mph /  8km/h 58% 0in /  0.0mm 0 W/m2
20:40 71.1 °F /  21.7 °C 55.6 °F /  13.1 °C 30in /  1017.3hPa East 2mph /  3.2km/h 2mph /  3.2km/h 58% 0in /  0.0mm 0 W/m2
20:45 70.7 °F /  21.5 °C 55.2 °F /  12.9 °C 30.1in /  1017.6hPa SSE 0.9mph /  1.4km/h 2mph /  3.2km/h 58% 0in /  0.0mm 0 W/m2
20:50 70.3 °F /  21.3 °C 54.9 °F /  12.7 °C 30.1in /  1017.6hPa SSE 0.9mph /  1.4km/h 2mph /  3.2km/h 58% 0in /  0.0mm 0 W/m2
20:55 70 °F /  21.1 °C 55 °F /  12.8 °C 30.1in /  1017.6hPa Calm     59% 0in /  0.0mm 0 W/m2
21:00 69.6 °F /  20.9 °C 54.7 °F /  12.6 °C 30.1in /  1017.6hPa SSE 0.9mph /  1.4km/h 4mph /  6.4km/h 59% 0in /  0.0mm 0 W/m2
21:05 69.4 °F /  20.8 °C 54.9 °F /  12.7 °C 30.1in /  1017.6hPa SSE 0.9mph /  1.4km/h 1mph /  1.6km/h 60% 0in /  0.0mm 0 W/m2
21:10 69.3 °F /  20.7 °C 54.9 °F /  12.7 °C 30.1in /  1018.0hPa ENE 2.9mph /  4.7km/h 3mph /  4.8km/h 60% 0in /  0.0mm 0 W/m2
21:15 68.9 °F /  20.5 °C 54.9 °F /  12.7 °C 30.1in /  1017.6hPa East 0.9mph /  1.4km/h 2mph /  3.2km/h 61% 0in /  0.0mm 0 W/m2
21:20 68.5 °F /  20.3 °C 54.5 °F /  12.5 °C 30.1in /  1017.6hPa Calm   1mph /  1.6km/h 61% 0in /  0.0mm 0 W/m2
21:25 68.4 °F /  20.2 °C 54.9 °F /  12.7 °C 30.1in /  1017.6hPa NE 0.9mph /  1.4km/h 4mph /  6.4km/h 62% 0in /  0.0mm 0 W/m2
21:30 68.2 °F /  20.1 °C 54.7 °F /  12.6 °C 30.1in /  1017.6hPa Calm   1mph /  1.6km/h 62% 0in /  0.0mm 0 W/m2
21:35 68 °F /  20 °C 54.5 °F /  12.5 °C 30.1in /  1017.6hPa Calm   1mph /  1.6km/h 62% 0in /  0.0mm 0 W/m2
21:40 67.8 °F /  19.9 °C 54.3 °F /  12.4 °C 30.1in /  1018.0hPa Calm   1mph /  1.6km/h 62% 0in /  0.0mm 0 W/m2
21:45 67.6 °F /  19.8 °C 54.7 °F /  12.6 °C 30.1in /  1018.0hPa Calm     63% 0in /  0.0mm 0 W/m2
21:50 67.3 °F /  19.6 °C 54.3 °F /  12.4 °C 30.1in /  1018.0hPa Calm   1mph /  1.6km/h 63% 0in /  0.0mm 0 W/m2
21:55 67.3 °F /  19.6 °C 54.3 °F /  12.4 °C 30.1in /  1017.6hPa Calm   4mph /  6.4km/h 63% 0in /  0.0mm 0 W/m2
22:00 67.3 °F /  19.6 °C 54.3 °F /  12.4 °C 30.1in /  1018.0hPa Calm   1mph /  1.6km/h 63% 0in /  0.0mm 0 W/m2
22:05 67.3 °F /  19.6 °C 54.3 °F /  12.4 °C 30.1in /  1018.0hPa Calm   1mph /  1.6km/h 63% 0in /  0.0mm 0 W/m2
22:10 66.9 °F /  19.4 °C 54.3 °F /  12.4 °C 30.1in /  1018.0hPa Calm     64% 0in /  0.0mm 0 W/m2
22:15 66.7 °F /  19.3 °C 54.1 °F /  12.3 °C 30.1in /  1018.0hPa SSW 0.9mph /  1.4km/h 2mph /  3.2km/h 64% 0in /  0.0mm 0 W/m2
22:20 66.7 °F /  19.3 °C 54.1 °F /  12.3 °C 30.1in /  1018.0hPa Calm     64% 0in /  0.0mm 0 W/m2
22:25 66.6 °F /  19.2 °C 54.5 °F /  12.5 °C 30.1in /  1018.0hPa Calm   1mph /  1.6km/h 65% 0in /  0.0mm 0 W/m2
22:30 66.4 °F /  19.1 °C 54.3 °F /  12.4 °C 30.1in /  1018.0hPa Calm   1mph /  1.6km/h 65% 0in /  0.0mm 0 W/m2
22:35 66 °F /  18.9 °C 54 °F /  12.2 °C 30.1in /  1018.0hPa East 0.9mph /  1.4km/h 1mph /  1.6km/h 65% 0in /  0.0mm 0 W/m2
22:40 65.8 °F /  18.8 °C 53.8 °F /  12.1 °C 30.1in /  1018.0hPa Calm     65% 0in /  0.0mm 0 W/m2
22:45 65.7 °F /  18.7 °C 54 °F /  12.2 °C 30.1in /  1018.0hPa Calm     66% 0in /  0.0mm 0 W/m2
22:50 65.5 °F /  18.6 °C 53.8 °F /  12.1 °C 30.1in /  1018.0hPa Calm   2mph /  3.2km/h 66% 0in /  0.0mm 0 W/m2
22:56 65.1 °F /  18.4 °C 53.4 °F /  11.9 °C 30.1in /  1018.0hPa Calm     66% 0in /  0.0mm 0 W/m2
23:01 64.9 °F /  18.3 °C 53.8 °F /  12.1 °C 30.1in /  1018.0hPa Calm   2mph /  3.2km/h 67% 0in /  0.0mm 0 W/m2
23:06 64.8 °F /  18.2 °C 53.6 °F /  12 °C 30.1in /  1018.0hPa Calm     67% 0in /  0.0mm 0 W/m2
23:11 64.6 °F /  18.1 °C 53.4 °F /  11.9 °C 30.1in /  1018.0hPa Calm     67% 0in /  0.0mm 0 W/m2
23:16 64.2 °F /  17.9 °C 53.4 °F /  11.9 °C 30.1in /  1018.0hPa Calm     68% 0in /  0.0mm 0 W/m2
23:21 64 °F /  17.8 °C 53.2 °F /  11.8 °C 30.1in /  1018.0hPa Calm     68% 0in /  0.0mm 0 W/m2
23:26 63.9 °F /  17.7 °C 53.4 °F /  11.9 °C 30.1in /  1018.0hPa Calm     69% 0in /  0.0mm 0 W/m2
23:31 63.7 °F /  17.6 °C 53.2 °F /  11.8 °C 30.1in /  1018.0hPa Calm     69% 0in /  0.0mm 0 W/m2
23:36 63.3 °F /  17.4 °C 53.1 °F /  11.7 °C 30.1in /  1018.0hPa Calm     69% 0in /  0.0mm 0 W/m2
23:41 63.3 °F /  17.4 °C 53.4 °F /  11.9 °C 30.1in /  1018.0hPa Calm     70% 0in /  0.0mm 0 W/m2
23:46 63.1 °F /  17.3 °C 53.2 °F /  11.8 °C 30.1in /  1018.0hPa Calm     70% 0in /  0.0mm 0 W/m2
23:51 63 °F /  17.2 °C 53.4 °F /  11.9 °C 30.1in /  1018.0hPa Calm   1mph /  1.6km/h 71% 0in /  0.0mm 0 W/m2
23:56 62.6 °F /  17 °C 53.1 °F /  11.7 °C 30.1in /  1018.0hPa Calm   1mph /  1.6km/h 71% 0in /  0.0mm 0 W/m2
Juneau County Weather
Compliments of Weather Underground - 4 mb